createdAt,value
2023-03-01T00:01:30.717Z,-2.20
2023-03-01T00:03:58.240Z,-2.10
2023-03-01T00:06:26.391Z,-2.10
2023-03-01T00:08:53.913Z,-2.20
2023-03-01T00:11:30.328Z,-2.20
2023-03-01T00:13:59.690Z,-2.30
2023-03-01T00:16:39.981Z,-2.40
2023-03-01T00:19:08.588Z,-2.50
2023-03-01T00:21:36.556Z,-2.40
2023-03-01T00:24:03.715Z,-2.40
2023-03-01T00:26:30.952Z,-2.40
2023-03-01T00:28:59.432Z,-2.50
2023-03-01T00:31:30.201Z,-2.50
2023-03-01T00:33:59.064Z,-2.50
2023-03-01T00:36:28.575Z,-2.50
2023-03-01T00:38:56.309Z,-2.60
2023-03-01T00:41:24.022Z,-2.50
2023-03-01T00:43:51.365Z,-2.60
2023-03-01T00:46:21.582Z,-2.70
2023-03-01T00:48:48.860Z,-2.60
2023-03-01T00:51:18.122Z,-2.50
2023-03-01T00:53:45.733Z,-2.50
2023-03-01T00:56:14.423Z,-2.50
2023-03-01T00:58:41.827Z,-2.30
2023-03-01T01:01:18.563Z,-2.40
2023-03-01T01:03:49.390Z,-2.30
2023-03-01T01:06:18.496Z,-2.20
2023-03-01T01:08:45.363Z,-2.40
2023-03-01T01:11:13.680Z,-2.60
2023-03-01T01:13:41.711Z,-2.70
2023-03-01T01:16:09.590Z,-2.70
2023-03-01T01:18:36.970Z,-2.80
2023-03-01T01:21:09.001Z,-2.80
2023-03-01T01:23:37.126Z,-2.80
2023-03-01T01:26:32.078Z,-2.80
2023-03-01T01:29:00.863Z,-2.90
2023-03-01T01:31:29.179Z,-2.80
2023-03-01T01:33:56.957Z,-2.90
2023-03-01T01:36:24.210Z,-2.80
2023-03-01T01:38:51.089Z,-2.90
2023-03-01T01:41:18.790Z,-2.90
2023-03-01T01:44:06.095Z,-2.90
2023-03-01T01:46:35.267Z,-2.90
2023-03-01T01:49:18.876Z,-2.90
2023-03-01T01:51:49.205Z,-2.90
2023-03-01T01:54:22.640Z,-3.00
2023-03-01T01:56:56.284Z,-3.00
2023-03-01T01:59:26.038Z,-3.00
2023-03-01T02:01:54.043Z,-3.00
2023-03-01T02:04:22.090Z,-3.10
2023-03-01T02:07:04.138Z,-3.00
2023-03-01T02:09:32.372Z,-3.10
2023-03-01T02:12:00.278Z,-3.10
2023-03-01T02:14:27.502Z,-3.10
2023-03-01T02:16:54.438Z,-3.10
2023-03-01T02:19:43.760Z,-3.10
2023-03-01T02:22:28.702Z,-3.10
2023-03-01T02:24:55.502Z,-3.10
2023-03-01T02:27:27.402Z,-3.10
2023-03-01T02:29:56.862Z,-3.10
2023-03-01T02:32:26.080Z,-3.00
2023-03-01T02:34:55.751Z,-3.00
2023-03-01T02:37:25.777Z,-3.10
2023-03-01T02:40:07.062Z,-3.00
2023-03-01T02:42:40.045Z,-3.00
2023-03-01T02:45:07.247Z,-3.10
2023-03-01T02:47:34.542Z,-3.10
2023-03-01T02:50:01.484Z,-3.10
2023-03-01T02:52:46.159Z,-3.10
2023-03-01T02:55:18.286Z,-3.10
2023-03-01T02:57:47.531Z,-3.10
2023-03-01T03:00:22.234Z,-3.10
2023-03-01T03:02:51.450Z,-3.20
2023-03-01T03:05:21.789Z,-3.20
2023-03-01T03:07:49.923Z,-3.30
2023-03-01T03:10:21.975Z,-3.30
2023-03-01T03:12:57.072Z,-3.30
2023-03-01T03:15:25.298Z,-3.30
2023-03-01T03:17:53.879Z,-3.30
2023-03-01T03:20:23.321Z,-3.30
2023-03-01T03:22:55.810Z,-3.30
2023-03-01T03:25:23.425Z,-3.30
2023-03-01T03:27:57.514Z,-3.40
2023-03-01T03:30:29.941Z,-3.40
2023-03-01T03:32:58.919Z,-3.40
2023-03-01T03:35:34.222Z,-3.40
2023-03-01T03:38:07.359Z,-3.30
2023-03-01T03:40:37.296Z,-3.20
2023-03-01T03:43:09.878Z,-3.20
2023-03-01T03:45:37.427Z,-3.20
2023-03-01T03:48:06.422Z,-3.00
2023-03-01T03:50:33.682Z,-3.00
2023-03-01T03:53:06.724Z,-3.10
2023-03-01T03:55:34.848Z,-2.90
2023-03-01T03:58:08.038Z,-2.90
2023-03-01T04:00:37.632Z,-3.00
2023-03-01T04:03:05.032Z,-3.10
2023-03-01T04:05:32.188Z,-3.10
2023-03-01T04:08:02.738Z,-3.10
2023-03-01T04:10:36.559Z,-3.20
2023-03-01T04:13:03.568Z,-3.10
2023-03-01T04:15:31.883Z,-3.10
2023-03-01T04:18:00.136Z,-3.00
2023-03-01T04:20:32.227Z,-3.00
2023-03-01T04:23:16.813Z,-3.00
2023-03-01T04:25:47.438Z,-3.00
2023-03-01T04:28:14.252Z,-3.10
2023-03-01T04:30:42.427Z,-3.10
2023-03-01T04:33:10.686Z,-3.00
2023-03-01T04:35:39.085Z,-3.10
2023-03-01T04:38:06.397Z,-3.20
2023-03-01T04:40:34.506Z,-3.20
2023-03-01T04:43:01.567Z,-3.30
2023-03-01T04:45:29.002Z,-3.30
2023-03-01T04:47:56.100Z,-3.40
2023-03-01T04:50:24.501Z,-3.40
2023-03-01T04:52:52.869Z,-3.40
2023-03-01T04:55:20.427Z,-3.40
2023-03-01T04:57:47.429Z,-3.40
2023-03-01T05:00:21.217Z,-3.40
2023-03-01T05:02:51.309Z,-3.40
2023-03-01T05:05:18.197Z,-3.40
2023-03-01T05:07:44.999Z,-3.50
2023-03-01T05:10:11.944Z,-3.50
2023-03-01T05:12:38.676Z,-3.50
2023-03-01T05:15:08.023Z,-3.60
2023-03-01T05:17:35.579Z,-3.50
2023-03-01T05:20:04.110Z,-3.50
2023-03-01T05:22:31.052Z,-3.60
2023-03-01T05:24:57.824Z,-3.60
2023-03-01T05:27:24.692Z,-3.60
2023-03-01T05:29:51.478Z,-3.60
2023-03-01T05:32:18.420Z,-3.70
2023-03-01T05:34:47.352Z,-3.60
2023-03-01T05:37:15.096Z,-3.60
2023-03-01T05:39:42.903Z,-3.70
2023-03-01T05:42:11.872Z,-3.60
2023-03-01T05:44:38.799Z,-3.60
2023-03-01T05:47:05.733Z,-3.60
2023-03-01T05:49:33.105Z,-3.30
2023-03-01T05:52:00.018Z,-3.40
2023-03-01T05:54:27.479Z,-3.50
2023-03-01T05:56:54.320Z,-3.50
2023-03-01T05:59:21.266Z,-3.60
2023-03-01T06:01:48.041Z,-3.50
2023-03-01T06:04:15.029Z,-3.60
2023-03-01T06:06:41.814Z,-3.40
2023-03-01T06:09:10.228Z,-3.60
2023-03-01T06:11:38.246Z,-3.60
2023-03-01T06:14:07.509Z,-3.60
2023-03-01T06:16:34.365Z,-3.60
2023-03-01T06:19:01.400Z,-3.60
2023-03-01T06:21:28.331Z,-3.60
2023-03-01T06:23:55.149Z,-3.60
2023-03-01T06:26:21.951Z,-3.60
2023-03-01T06:28:48.749Z,-3.60
2023-03-01T06:31:15.840Z,-3.60
2023-03-01T06:33:42.740Z,-3.60
2023-03-01T06:36:11.478Z,-3.60
2023-03-01T06:38:38.480Z,-3.60
2023-03-01T06:41:05.469Z,-3.70
2023-03-01T06:43:32.294Z,-3.60
2023-03-01T06:45:59.223Z,-3.50
2023-03-01T06:48:26.085Z,-3.40
2023-03-01T06:50:53.418Z,-3.40
2023-03-01T06:53:20.230Z,-3.40
2023-03-01T06:55:47.126Z,-3.40
2023-03-01T06:58:14.035Z,-3.30
2023-03-01T07:00:41.960Z,-3.20
2023-03-01T07:03:09.855Z,-3.20
2023-03-01T07:05:36.846Z,-3.10
2023-03-01T07:08:04.201Z,-3.00
2023-03-01T07:10:31.087Z,-2.90
2023-03-01T07:12:59.318Z,-2.90
2023-03-01T07:15:27.684Z,-2.70
2023-03-01T07:17:54.706Z,-2.60
2023-03-01T07:20:26.458Z,-2.50
2023-03-01T07:22:54.537Z,-2.40
2023-03-01T07:25:21.580Z,-2.30
2023-03-01T07:27:53.289Z,-2.20
2023-03-01T07:30:21.364Z,-2.20
2023-03-01T07:32:48.574Z,-2.20
2023-03-01T07:35:16.256Z,-2.10
2023-03-01T07:37:43.175Z,-2.10
2023-03-01T07:40:10.717Z,-2.10
2023-03-01T07:42:37.742Z,-2.00
2023-03-01T07:45:06.252Z,-2.00
2023-03-01T07:47:33.798Z,-1.90
2023-03-01T07:50:02.170Z,-1.80
2023-03-01T07:52:29.553Z,-1.90
2023-03-01T07:54:56.645Z,-1.80
2023-03-01T07:57:24.124Z,-1.80
2023-03-01T07:59:51.093Z,-1.70
2023-03-01T08:02:18.127Z,-1.70
2023-03-01T08:04:45.120Z,-1.50
2023-03-01T08:07:12.623Z,-1.50
2023-03-01T08:09:40.246Z,-1.40
2023-03-01T08:12:07.605Z,-1.20
2023-03-01T08:14:34.482Z,-1.10
2023-03-01T08:17:01.366Z,-1.10
2023-03-01T08:19:29.149Z,-1.00
2023-03-01T08:21:59.171Z,-0.90
2023-03-01T08:24:26.594Z,-0.90
2023-03-01T08:26:53.860Z,-0.80
2023-03-01T08:29:21.311Z,-0.70
2023-03-01T08:31:49.254Z,-0.60
2023-03-01T08:34:17.514Z,-0.60
2023-03-01T08:36:46.423Z,-0.50
2023-03-01T08:39:17.964Z,-0.40
2023-03-01T08:41:47.089Z,-0.40
2023-03-01T08:44:17.686Z,-0.30
2023-03-01T08:46:46.549Z,-0.30
2023-03-01T08:49:15.752Z,-0.30
2023-03-01T08:51:44.271Z,-0.20
2023-03-01T08:54:17.446Z,-0.10
2023-03-01T08:56:44.338Z,0.00
2023-03-01T08:59:13.004Z,0.10
2023-03-01T09:01:41.192Z,0.00
2023-03-01T09:04:08.086Z,0.30
2023-03-01T09:06:35.518Z,0.30
2023-03-01T09:09:04.166Z,0.30
2023-03-01T09:11:31.042Z,0.40
2023-03-01T09:13:58.325Z,0.40
2023-03-01T09:16:25.309Z,0.50
2023-03-01T09:18:53.853Z,0.80
2023-03-01T09:21:37.646Z,0.80
2023-03-01T09:24:06.822Z,0.60
2023-03-01T09:26:33.871Z,0.70
2023-03-01T09:29:01.156Z,1.00
2023-03-01T09:31:28.156Z,1.00
2023-03-01T09:33:55.952Z,1.20
2023-03-01T09:36:26.366Z,1.50
2023-03-01T09:38:54.277Z,1.50
2023-03-01T09:42:03.185Z,1.50
2023-03-01T09:44:41.283Z,1.60
2023-03-01T09:47:21.153Z,1.80
2023-03-01T09:49:59.927Z,1.80
2023-03-01T09:52:44.525Z,2.00
2023-03-01T09:55:17.053Z,2.10
2023-03-01T09:58:09.715Z,2.30
2023-03-01T10:00:48.414Z,2.30
2023-03-01T10:03:26.260Z,2.30
2023-03-01T10:06:27.550Z,2.40
2023-03-01T10:09:15.104Z,2.40
2023-03-01T10:11:54.278Z,2.70
2023-03-01T10:14:49.485Z,2.50
2023-03-01T10:17:34.714Z,2.70
2023-03-01T10:20:23.855Z,2.70
2023-03-01T10:22:53.429Z,2.70
2023-03-01T10:25:50.427Z,2.80
2023-03-01T10:28:18.955Z,2.90
2023-03-01T10:30:46.348Z,2.90
2023-03-01T10:33:30.315Z,2.90
2023-03-01T10:35:57.187Z,3.00
2023-03-01T10:38:24.678Z,3.00
2023-03-01T10:41:00.251Z,3.10
2023-03-01T10:43:33.347Z,3.10
2023-03-01T10:46:00.296Z,3.10
2023-03-01T10:48:29.467Z,3.10
2023-03-01T10:50:59.346Z,3.30
2023-03-01T10:53:50.426Z,3.40
2023-03-01T10:56:17.375Z,3.60
2023-03-01T10:59:02.359Z,3.50
2023-03-01T11:01:36.756Z,3.40
2023-03-01T11:04:06.754Z,3.70
2023-03-01T11:06:38.819Z,3.50
2023-03-01T11:09:23.420Z,3.70
2023-03-01T11:11:55.428Z,3.70
2023-03-01T11:14:41.780Z,3.70
2023-03-01T11:17:26.768Z,3.60
2023-03-01T11:20:15.553Z,3.70
2023-03-01T11:22:53.417Z,3.80
2023-03-01T11:25:27.047Z,3.90
2023-03-01T11:27:55.566Z,4.00
2023-03-01T11:30:40.976Z,3.90
2023-03-01T11:33:38.222Z,3.90
2023-03-01T11:36:35.893Z,4.30
2023-03-01T11:39:40.807Z,4.30
2023-03-01T11:42:21.592Z,4.30
2023-03-01T11:44:53.390Z,4.30
2023-03-01T11:47:48.711Z,4.30
2023-03-01T11:50:40.047Z,4.50
2023-03-01T11:53:30.186Z,4.50
2023-03-01T11:55:59.712Z,4.60
2023-03-01T11:58:35.557Z,4.60
2023-03-01T12:01:14.282Z,4.60
2023-03-01T12:04:11.315Z,4.70
2023-03-01T12:06:49.865Z,4.80
2023-03-01T12:09:37.410Z,4.80
2023-03-01T12:12:38.864Z,4.80
2023-03-01T12:15:24.373Z,4.90
2023-03-01T12:18:00.611Z,4.70
2023-03-01T12:21:11.552Z,4.60
2023-03-01T12:23:50.028Z,4.90
2023-03-01T12:26:33.458Z,4.90
2023-03-01T12:29:39.904Z,4.80
2023-03-01T12:32:13.885Z,4.90
2023-03-01T12:34:51.987Z,5.00
2023-03-01T12:37:34.572Z,5.10
2023-03-01T12:40:21.636Z,4.90
2023-03-01T12:43:13.254Z,4.70
2023-03-01T12:46:06.210Z,4.80
2023-03-01T12:48:41.066Z,4.90
2023-03-01T12:51:13.169Z,5.10
2023-03-01T12:53:47.805Z,4.90
2023-03-01T12:56:29.248Z,5.10
2023-03-01T12:59:25.656Z,5.00
2023-03-01T13:02:21.416Z,5.10
2023-03-01T13:04:51.087Z,5.00
2023-03-01T13:07:36.917Z,5.30
2023-03-01T13:10:12.268Z,5.10
2023-03-01T13:12:52.799Z,5.40
2023-03-01T13:15:30.839Z,5.30
2023-03-01T13:18:02.562Z,5.30
2023-03-01T13:20:45.057Z,5.30
2023-03-01T13:23:23.885Z,5.50
2023-03-01T13:26:00.168Z,5.60
2023-03-01T13:28:38.998Z,5.60
2023-03-01T13:31:11.066Z,5.40
2023-03-01T13:33:46.200Z,5.50
2023-03-01T13:36:50.181Z,5.60
2023-03-01T13:39:33.463Z,5.60
2023-03-01T13:42:01.531Z,5.60
2023-03-01T13:44:34.135Z,5.60
2023-03-01T13:47:08.517Z,5.80
2023-03-01T13:49:46.589Z,5.90
2023-03-01T13:52:29.060Z,5.90
2023-03-01T13:54:57.686Z,5.80
2023-03-01T13:57:30.801Z,5.80
2023-03-01T13:59:57.650Z,5.90
2023-03-01T14:02:24.847Z,5.90
2023-03-01T14:05:00.165Z,5.80
2023-03-01T14:07:31.117Z,5.90
2023-03-01T14:10:02.769Z,5.70
2023-03-01T14:12:32.567Z,5.70
2023-03-01T14:15:05.362Z,5.80
2023-03-01T14:17:56.952Z,5.90
2023-03-01T14:20:29.186Z,5.90
2023-03-01T14:22:59.650Z,5.70
2023-03-01T14:25:31.615Z,5.80
2023-03-01T14:28:05.454Z,5.80
2023-03-01T14:30:42.089Z,5.90
2023-03-01T14:33:24.268Z,5.90
2023-03-01T14:36:07.941Z,6.00
2023-03-01T14:38:40.128Z,5.90
2023-03-01T14:41:23.401Z,5.80
2023-03-01T14:44:15.598Z,5.80
2023-03-01T14:46:45.364Z,5.80
2023-03-01T14:49:20.014Z,5.80
2023-03-01T14:51:56.312Z,5.80
2023-03-01T14:54:28.952Z,5.80
2023-03-01T14:57:00.929Z,5.80
2023-03-01T14:59:28.069Z,5.90
2023-03-01T15:01:58.299Z,6.00
2023-03-01T15:04:27.490Z,6.00
2023-03-01T15:06:56.784Z,6.00
2023-03-01T15:09:24.492Z,5.80
2023-03-01T15:11:51.295Z,6.00
2023-03-01T15:14:44.094Z,5.90
2023-03-01T15:17:44.820Z,5.80
2023-03-01T15:20:23.119Z,5.90
2023-03-01T15:22:50.021Z,5.80
2023-03-01T15:25:23.096Z,5.80
2023-03-01T15:27:51.784Z,5.80
2023-03-01T15:30:28.441Z,5.80
2023-03-01T15:33:30.864Z,5.80
2023-03-01T15:35:59.866Z,5.80
2023-03-01T15:38:51.194Z,5.70
2023-03-01T15:41:33.309Z,5.70
2023-03-01T15:44:02.030Z,5.70
2023-03-01T15:46:38.633Z,5.70
2023-03-01T15:49:25.806Z,5.60
2023-03-01T15:51:55.969Z,5.60
2023-03-01T15:54:25.439Z,5.60
2023-03-01T15:56:52.831Z,5.50
2023-03-01T15:59:20.208Z,5.50
2023-03-01T16:01:49.606Z,5.40
2023-03-01T16:04:24.547Z,5.40
2023-03-01T16:06:56.196Z,5.40
2023-03-01T16:09:27.570Z,5.40
2023-03-01T16:11:55.320Z,5.40
2023-03-01T16:14:23.009Z,5.30
2023-03-01T16:16:50.662Z,5.30
2023-03-01T16:19:17.691Z,5.30
2023-03-01T16:21:47.724Z,5.30
2023-03-01T16:24:15.684Z,5.20
2023-03-01T16:26:43.326Z,5.10
2023-03-01T16:29:10.575Z,5.10
2023-03-01T16:31:37.664Z,5.10
2023-03-01T16:34:04.942Z,5.00
2023-03-01T16:36:31.862Z,4.90
2023-03-01T16:39:01.400Z,4.90
2023-03-01T16:41:29.075Z,4.80
2023-03-01T16:43:56.078Z,4.70
2023-03-01T16:46:27.200Z,4.70
2023-03-01T16:48:55.484Z,4.70
2023-03-01T16:51:23.579Z,4.60
2023-03-01T16:53:51.237Z,4.60
2023-03-01T16:56:19.402Z,4.40
2023-03-01T16:58:46.550Z,4.50
2023-03-01T17:01:17.400Z,4.40
2023-03-01T17:03:47.246Z,4.30
2023-03-01T17:06:17.845Z,4.30
2023-03-01T17:08:44.900Z,4.20
2023-03-01T17:11:14.690Z,4.10
2023-03-01T17:13:42.683Z,4.00
2023-03-01T17:16:13.346Z,4.00
2023-03-01T17:18:40.289Z,3.90
2023-03-01T17:21:08.177Z,3.90
2023-03-01T17:23:36.703Z,3.90
2023-03-01T17:26:06.078Z,3.80
2023-03-01T17:28:34.823Z,3.80
2023-03-01T17:31:03.583Z,3.70
2023-03-01T17:33:33.252Z,3.60
2023-03-01T17:36:00.694Z,3.60
2023-03-01T17:38:27.698Z,3.60
2023-03-01T17:40:54.821Z,3.50
2023-03-01T17:43:21.766Z,3.40
2023-03-01T17:45:50.716Z,3.40
2023-03-01T17:48:18.459Z,3.40
2023-03-01T17:50:45.527Z,3.20
2023-03-01T17:53:12.584Z,3.30
2023-03-01T17:55:41.454Z,3.20
2023-03-01T17:58:10.361Z,3.20
2023-03-01T18:00:37.843Z,3.20
2023-03-01T18:03:04.912Z,3.20
2023-03-01T18:05:37.775Z,3.30
2023-03-01T18:08:05.040Z,3.20
2023-03-01T18:10:32.794Z,3.10
2023-03-01T18:12:59.656Z,3.10
2023-03-01T18:15:27.412Z,3.00
2023-03-01T18:17:54.473Z,3.10
2023-03-01T18:20:22.389Z,3.10
2023-03-01T18:22:50.900Z,3.00
2023-03-01T18:25:17.729Z,3.00
2023-03-01T18:27:44.607Z,2.90
2023-03-01T18:30:12.547Z,2.80
2023-03-01T18:32:42.429Z,2.80
2023-03-01T18:35:09.407Z,2.80
2023-03-01T18:37:36.254Z,2.70
2023-03-01T18:40:03.537Z,2.70
2023-03-01T18:42:30.462Z,2.70
2023-03-01T18:44:57.490Z,2.60
2023-03-01T18:47:24.572Z,2.60
2023-03-01T18:49:51.425Z,2.50
2023-03-01T18:52:18.286Z,2.60
2023-03-01T18:54:45.314Z,2.50
2023-03-01T18:57:12.229Z,2.50
2023-03-01T18:59:39.448Z,2.50
2023-03-01T19:02:06.575Z,2.50
2023-03-01T19:04:33.468Z,2.50
2023-03-01T19:07:02.250Z,2.50
2023-03-01T19:09:29.627Z,2.40
2023-03-01T19:11:58.855Z,2.50
2023-03-01T19:14:25.799Z,2.60
2023-03-01T19:16:53.093Z,2.50
2023-03-01T19:19:19.963Z,2.40
2023-03-01T19:21:56.032Z,2.20
2023-03-01T19:24:31.748Z,2.30
2023-03-01T19:26:58.693Z,2.30
2023-03-01T19:29:26.262Z,2.40
2023-03-01T19:31:53.393Z,2.30
2023-03-01T19:34:22.892Z,2.40
2023-03-01T19:36:49.842Z,2.20
2023-03-01T19:39:17.073Z,2.20
2023-03-01T19:41:45.103Z,2.10
2023-03-01T19:44:12.265Z,2.10
2023-03-01T19:46:39.519Z,2.00
2023-03-01T19:49:06.926Z,1.90
2023-03-01T19:51:36.593Z,1.90
2023-03-01T19:54:07.683Z,1.90
2023-03-01T19:56:37.673Z,1.90
2023-03-01T19:59:09.352Z,2.00
2023-03-01T20:01:37.919Z,2.10
2023-03-01T20:04:05.963Z,2.10
2023-03-01T20:06:37.022Z,2.10
2023-03-01T20:09:20.489Z,2.20
2023-03-01T20:11:48.220Z,2.20
2023-03-01T20:14:24.159Z,2.20
2023-03-01T20:16:52.764Z,2.20
2023-03-01T20:19:20.158Z,2.20
2023-03-01T20:21:47.801Z,2.20
2023-03-01T20:24:15.166Z,2.10
2023-03-01T20:26:44.786Z,2.20
2023-03-01T20:29:15.387Z,2.10
2023-03-01T20:31:45.664Z,2.10
2023-03-01T20:34:12.872Z,2.00
2023-03-01T20:36:41.654Z,1.90
2023-03-01T20:39:09.834Z,1.80
2023-03-01T20:41:37.250Z,1.80
2023-03-01T20:44:06.813Z,1.70
2023-03-01T20:46:39.067Z,1.60
2023-03-01T20:49:12.026Z,1.50
2023-03-01T20:51:39.120Z,1.50
2023-03-01T20:54:06.117Z,1.50
2023-03-01T20:56:33.474Z,1.50
2023-03-01T20:59:00.754Z,1.50
2023-03-01T21:01:27.655Z,1.30
2023-03-01T21:03:54.627Z,1.30
2023-03-01T21:06:21.775Z,1.30
2023-03-01T21:08:48.958Z,1.20
2023-03-01T21:11:16.652Z,1.00
2023-03-01T21:13:44.648Z,0.90
2023-03-01T21:16:15.745Z,0.90
2023-03-01T21:18:43.644Z,0.90
2023-03-01T21:21:13.899Z,0.90
2023-03-01T21:23:42.005Z,0.80
2023-03-01T21:26:21.593Z,0.60
2023-03-01T21:28:51.015Z,0.60
2023-03-01T21:31:22.498Z,0.60
2023-03-01T21:33:55.357Z,0.50
2023-03-01T21:36:24.863Z,0.30
2023-03-01T21:38:52.932Z,0.40
2023-03-01T21:41:23.490Z,0.40
2023-03-01T21:43:52.304Z,0.30
2023-03-01T21:46:22.640Z,0.50
2023-03-01T21:48:51.805Z,0.40
2023-03-01T21:51:21.006Z,0.30
2023-03-01T21:53:48.666Z,0.10
2023-03-01T21:56:18.120Z,0.20
2023-03-01T21:58:45.502Z,0.10
2023-03-01T22:01:15.548Z,0.20
2023-03-01T22:03:46.092Z,-0.10
2023-03-01T22:06:19.830Z,-0.10
2023-03-01T22:08:52.005Z,-0.10
2023-03-01T22:11:20.167Z,-0.10
2023-03-01T22:13:51.642Z,-0.10
2023-03-01T22:16:21.353Z,-0.30
2023-03-01T22:18:48.585Z,-0.30
2023-03-01T22:21:16.267Z,-0.30
2023-03-01T22:23:43.572Z,-0.30
2023-03-01T22:26:40.638Z,-0.30
2023-03-01T22:29:16.401Z,-0.40
2023-03-01T22:31:43.682Z,-0.50
2023-03-01T22:34:11.078Z,-0.50
2023-03-01T22:36:39.325Z,-0.50
2023-03-01T22:39:07.295Z,-0.50
2023-03-01T22:41:44.339Z,-0.40
2023-03-01T22:44:18.519Z,-0.40
2023-03-01T22:46:46.189Z,-0.30
2023-03-01T22:49:13.509Z,-0.20
2023-03-01T22:51:42.683Z,-0.40
2023-03-01T22:54:10.928Z,-0.40
2023-03-01T22:56:39.176Z,-0.50
2023-03-01T22:59:12.131Z,-0.60
2023-03-01T23:01:40.662Z,-0.70
2023-03-01T23:04:07.807Z,-0.60
2023-03-01T23:06:35.573Z,-0.60
2023-03-01T23:09:07.213Z,-0.60
2023-03-01T23:11:34.096Z,-0.70
2023-03-01T23:14:01.202Z,-0.70
2023-03-01T23:16:28.218Z,-0.70
2023-03-01T23:18:59.007Z,-0.80
2023-03-01T23:21:26.695Z,-0.80
2023-03-01T23:23:55.201Z,-0.80
2023-03-01T23:26:22.654Z,-0.70
2023-03-01T23:28:50.887Z,-0.50
2023-03-01T23:31:18.175Z,-0.60
2023-03-01T23:33:46.581Z,-0.70
2023-03-01T23:36:44.916Z,-0.70
2023-03-01T23:39:13.394Z,-0.50
2023-03-01T23:41:40.701Z,-0.50
2023-03-01T23:44:07.852Z,-0.50
2023-03-01T23:46:37.497Z,-0.50
2023-03-01T23:49:04.721Z,-0.30
2023-03-01T23:51:31.575Z,0.00
2023-03-01T23:54:01.876Z,0.00
2023-03-01T23:56:36.001Z,0.10
2023-03-01T23:59:09.310Z,0.00
